createdAt,value
2022-10-12T00:05:10.460Z,406.92
2022-10-12T00:10:42.321Z,406.92
2022-10-12T00:16:13.972Z,407.09
2022-10-12T00:21:45.854Z,407.61
2022-10-12T00:27:17.608Z,407.78
2022-10-12T00:32:49.302Z,407.96
2022-10-12T00:38:21.648Z,408.13
2022-10-12T00:43:57.967Z,408.30
2022-10-12T00:49:25.115Z,408.48
2022-10-12T00:54:57.345Z,408.13
2022-10-12T01:00:29.177Z,408.30
2022-10-12T01:06:02.243Z,408.48
2022-10-12T01:11:33.767Z,408.48
2022-10-12T01:17:05.539Z,408.13
2022-10-12T01:22:37.424Z,407.78
2022-10-12T01:28:09.296Z,407.61
2022-10-12T01:33:40.995Z,407.78
2022-10-12T01:39:12.831Z,407.96
2022-10-12T01:44:44.912Z,408.13
2022-10-12T01:50:16.755Z,407.96
2022-10-12T01:55:48.642Z,408.13
2022-10-12T02:01:20.598Z,408.13
2022-10-12T02:06:52.805Z,407.78
2022-10-12T02:12:25.009Z,407.61
2022-10-12T02:17:57.267Z,407.61
2022-10-12T02:28:59.004Z,407.61
2022-10-12T02:34:31.052Z,407.96
2022-10-12T02:40:02.868Z,408.30
2022-10-12T02:45:34.799Z,408.65
2022-10-12T02:51:06.742Z,409.00
2022-10-12T02:56:38.673Z,409.17
2022-10-12T03:02:10.592Z,409.69
2022-10-12T03:07:42.634Z,409.86
2022-10-12T03:13:14.525Z,410.38
2022-10-12T03:18:46.761Z,410.55
2022-10-12T03:24:18.714Z,410.38
2022-10-12T03:29:50.765Z,410.38
2022-10-12T03:35:22.523Z,410.21
2022-10-12T03:40:54.405Z,410.04
2022-10-12T03:46:26.863Z,409.69
2022-10-12T03:57:31.485Z,409.69
2022-10-12T04:03:03.434Z,409.52
2022-10-12T04:08:35.540Z,409.34
2022-10-12T04:14:07.408Z,409.34
2022-10-12T04:19:39.122Z,409.34
2022-10-12T04:25:10.936Z,409.34
2022-10-12T04:30:43.036Z,409.17
2022-10-12T04:36:15.057Z,409.17
2022-10-12T04:41:46.885Z,409.00
2022-10-12T04:47:18.602Z,409.17
2022-10-12T04:52:50.685Z,409.00
2022-10-12T04:58:22.996Z,408.82
2022-10-12T05:03:55.286Z,408.82
2022-10-12T05:09:27.113Z,409.00
2022-10-12T05:14:59.328Z,409.00
2022-10-12T05:20:31.376Z,408.48
2022-10-12T05:26:03.141Z,408.48
2022-10-12T05:31:34.773Z,408.13
2022-10-12T05:37:06.685Z,407.78
2022-10-12T05:42:38.570Z,407.44
2022-10-12T05:48:10.095Z,407.26
2022-10-12T05:59:11.097Z,407.09
2022-10-12T06:04:43.012Z,406.66
2022-10-12T06:10:14.755Z,406.31
2022-10-12T06:15:46.581Z,405.97
2022-10-12T06:21:33.165Z,405.97
2022-10-12T06:26:50.584Z,405.97
2022-10-12T06:32:22.804Z,405.62
2022-10-12T06:37:54.605Z,405.45
2022-10-12T06:43:26.551Z,405.27
2022-10-12T06:48:58.524Z,404.75
2022-10-12T06:54:30.772Z,404.75
2022-10-12T07:00:03.133Z,405.10
2022-10-12T07:05:35.278Z,405.10
2022-10-12T07:07:47.731Z,404.58
2022-10-12T07:13:19.761Z,404.58
2022-10-12T07:18:51.677Z,404.58
2022-10-12T07:24:23.690Z,404.06
2022-10-12T07:29:55.621Z,403.89
2022-10-12T07:35:27.661Z,403.54
2022-10-12T07:40:59.968Z,403.20
2022-10-12T07:46:31.756Z,402.85
2022-10-12T07:52:03.575Z,402.68
2022-10-12T07:57:35.341Z,402.07
2022-10-12T08:03:07.247Z,402.07
2022-10-12T08:08:39.262Z,401.72
2022-10-12T08:14:10.980Z,401.55
2022-10-12T08:19:43.253Z,401.55
2022-10-12T08:25:15.713Z,401.38
2022-10-12T08:30:47.477Z,401.72
2022-10-12T08:36:19.192Z,401.38
2022-10-12T08:41:51.120Z,401.72
2022-10-12T08:47:23.066Z,401.55
2022-10-12T08:52:54.708Z,401.55
2022-10-12T09:00:46.457Z,401.38
2022-10-12T09:06:18.093Z,400.86
2022-10-12T09:11:49.841Z,401.20
2022-10-12T09:17:21.277Z,400.86
2022-10-12T09:22:53.719Z,400.69
2022-10-12T09:28:25.764Z,400.51
2022-10-12T09:33:57.755Z,400.17
2022-10-12T09:39:29.653Z,400.34
2022-10-12T09:45:01.393Z,400.69
2022-10-12T09:50:33.522Z,400.34
2022-10-12T09:56:05.741Z,400.69
2022-10-12T10:01:38.058Z,400.69
2022-10-12T10:07:10.353Z,400.69
2022-10-12T10:12:42.302Z,400.69
2022-10-12T10:18:14.334Z,400.86
2022-10-12T10:23:46.513Z,400.86
2022-10-12T10:40:20.046Z,401.20
2022-10-12T10:45:51.880Z,401.38
2022-10-12T10:51:23.550Z,401.72
2022-10-12T10:56:55.505Z,402.07
2022-10-12T11:02:27.200Z,402.24
2022-10-12T11:07:59.211Z,402.59
2022-10-12T11:13:30.936Z,402.85
2022-10-12T11:19:02.859Z,403.02
2022-10-12T11:24:34.961Z,403.54
2022-10-12T11:30:10.088Z,403.89
2022-10-12T11:35:38.541Z,404.06
2022-10-12T11:46:42.126Z,404.75
2022-10-12T11:52:14.019Z,405.10
2022-10-12T12:03:15.076Z,405.79
2022-10-12T12:08:46.559Z,405.97
2022-10-12T12:14:18.269Z,405.97
2022-10-12T12:19:50.065Z,406.66
2022-10-12T12:25:21.826Z,407.26
2022-10-12T12:36:32.811Z,407.09
2022-10-12T12:47:46.600Z,406.92
2022-10-12T12:53:10.195Z,407.09
2022-10-12T13:04:16.989Z,407.09
2022-10-12T13:09:48.869Z,407.26
2022-10-12T13:15:20.758Z,407.26
2022-10-12T13:20:52.951Z,407.61
2022-10-12T13:28:45.421Z,408.65
2022-10-12T13:34:17.095Z,408.65
2022-10-12T13:39:48.891Z,408.65
2022-10-12T13:45:20.875Z,408.65
2022-10-12T13:50:52.410Z,409.00
2022-10-12T13:56:24.411Z,408.82
2022-10-12T14:01:56.277Z,409.17
2022-10-12T14:07:28.093Z,409.69
2022-10-12T14:18:29.908Z,410.38
2022-10-12T14:24:01.583Z,410.73
2022-10-12T14:29:34.261Z,410.73
2022-10-12T14:35:06.413Z,410.55
2022-10-12T14:40:37.841Z,410.55
2022-10-12T14:46:09.552Z,410.55
2022-10-12T14:51:40.891Z,410.55
2022-10-12T14:57:13.392Z,410.82
2022-10-12T15:02:44.712Z,411.16
2022-10-12T15:08:16.470Z,411.33
2022-10-12T15:13:48.267Z,411.51
2022-10-12T15:19:19.883Z,411.33
2022-10-12T15:24:51.581Z,411.33
2022-10-12T15:30:23.652Z,410.99
2022-10-12T15:35:55.255Z,410.73
2022-10-12T15:41:26.877Z,410.82
2022-10-12T15:46:58.684Z,410.82
2022-10-12T15:52:30.495Z,410.82
2022-10-12T15:58:02.490Z,410.82
2022-10-12T16:03:33.934Z,411.16
2022-10-12T16:09:05.924Z,411.33
2022-10-12T16:14:37.674Z,411.68
2022-10-12T16:20:09.473Z,411.68
2022-10-12T16:25:41.077Z,411.85
2022-10-12T16:31:13.001Z,412.20
2022-10-12T16:36:44.638Z,411.85
2022-10-12T16:42:17.001Z,411.68
2022-10-12T16:47:48.498Z,411.16
2022-10-12T16:53:20.226Z,410.82
2022-10-12T17:09:56.244Z,410.99
2022-10-12T17:15:28.038Z,410.82
2022-10-12T17:20:59.612Z,410.82
2022-10-12T17:37:35.146Z,410.21
2022-10-12T17:43:06.855Z,409.86
2022-10-12T17:48:38.742Z,409.69
2022-10-12T17:54:10.644Z,409.69
2022-10-12T17:59:42.353Z,409.52
2022-10-12T18:05:14.321Z,409.69
2022-10-12T18:10:45.729Z,409.52
2022-10-12T18:16:17.604Z,409.34
2022-10-12T18:21:49.569Z,409.17
2022-10-12T18:27:22.915Z,409.00
2022-10-12T18:32:54.693Z,409.00
2022-10-12T18:38:26.662Z,409.00
2022-10-12T18:43:58.856Z,409.17
2022-10-12T18:49:30.596Z,409.34
2022-10-12T18:57:26.579Z,410.21
2022-10-12T19:02:56.081Z,410.38
2022-10-12T19:08:28.288Z,410.38
2022-10-12T19:13:59.960Z,410.55
2022-10-12T19:19:31.883Z,410.38
2022-10-12T19:25:03.756Z,410.73
2022-10-12T19:30:35.903Z,410.73
2022-10-12T19:36:08.367Z,410.82
2022-10-12T19:41:40.447Z,411.16
2022-10-12T19:52:42.217Z,410.73
2022-10-12T19:58:14.043Z,410.55
2022-10-12T20:03:47.916Z,410.04
2022-10-12T20:09:17.705Z,409.69
2022-10-12T20:14:49.533Z,409.69
2022-10-12T20:20:20.988Z,409.69
2022-10-12T20:31:22.223Z,409.52
2022-10-12T20:36:54.274Z,409.52
2022-10-12T20:42:26.226Z,409.52
2022-10-12T20:47:57.793Z,409.00
2022-10-12T20:53:30.067Z,408.82
2022-10-12T20:59:01.690Z,408.65
2022-10-12T21:04:38.132Z,408.82
2022-10-12T21:10:05.046Z,409.34
2022-10-12T21:15:37.125Z,409.34
2022-10-12T21:21:08.885Z,409.69
2022-10-12T21:32:10.306Z,410.38
2022-10-12T21:37:42.450Z,410.04
2022-10-12T21:43:20.277Z,410.04
2022-10-12T21:48:52.247Z,409.52
2022-10-12T21:54:25.779Z,409.52
2022-10-12T21:59:57.552Z,409.69
2022-10-12T22:05:29.259Z,410.21
2022-10-12T22:11:01.113Z,410.04
2022-10-12T22:16:33.200Z,410.21
2022-10-12T22:22:05.212Z,410.38
2022-10-12T22:27:37.013Z,410.38
2022-10-12T22:33:08.731Z,410.21
2022-10-12T22:38:40.564Z,410.55
2022-10-12T22:44:12.831Z,410.55
2022-10-12T22:49:44.499Z,410.73
2022-10-12T22:55:16.181Z,410.99
2022-10-12T23:00:54.190Z,410.99
2022-10-12T23:06:26.321Z,411.16
2022-10-12T23:11:58.047Z,410.99
2022-10-12T23:17:29.988Z,411.33
2022-10-12T23:23:01.937Z,411.33
2022-10-12T23:28:33.718Z,411.33
2022-10-12T23:34:05.672Z,411.68
2022-10-12T23:39:37.770Z,411.85
2022-10-12T23:45:09.917Z,412.72
2022-10-12T23:50:41.921Z,412.89
2022-10-12T23:56:20.014Z,412.72
